Time;durP1;ratioP1;P1;durP2;ratioP2;P2;SDS_P1;SDS_P2;PMS_P1;PMS_P2;Temp;Humidity;BMP_temperature;BMP_pressure;BME280_temperature;BME280_humidity;BME280_pressure;Samples;Min_cycle;Max_cycle;Signal;HPM_P1;HPM_P2
2021/04/25 00:01:41;;;;;;;9.73;3.53;;;5.90;67.90;;;;;;3528167;40;20687;-68
2021/04/25 00:04:09;;;;;;;8.75;3.72;;;6.00;67.90;;;;;;3528594;40;20431;-67
2021/04/25 00:06:35;;;;;;;17.23;5.10;;;6.00;67.80;;;;;;3529038;40;20181;-67
2021/04/25 00:09:01;;;;;;;14.43;6.65;;;6.00;67.70;;;;;;3528867;40;20023;-67
2021/04/25 00:11:26;;;;;;;27.25;11.70;;;6.10;67.40;;;;;;3526865;40;20039;-67
2021/04/25 00:13:52;;;;;;;38.03;16.35;;;6.10;68.00;;;;;;3529219;40;20079;-67
2021/04/25 00:16:18;;;;;;;26.17;10.35;;;6.10;68.70;;;;;;3528634;40;20075;-67
2021/04/25 00:18:44;;;;;;;31.20;14.20;;;6.20;68.80;;;;;;3528570;40;20039;-67
2021/04/25 00:21:10;;;;;;;19.67;9.15;;;6.20;68.90;;;;;;3528264;40;20035;-68
2021/04/25 00:23:37;;;;;;;19.58;8.15;;;6.10;67.80;;;;;;3527927;40;20038;-67
2021/04/25 00:26:03;;;;;;;14.40;6.47;;;6.20;68.50;;;;;;3535348;40;20428;-68
2021/04/25 00:28:29;;;;;;;10.18;4.35;;;6.20;68.80;;;;;;3528362;40;20046;-67
2021/04/25 00:30:54;;;;;;;8.60;3.65;;;6.30;68.80;;;;;;3528705;40;20027;-68
2021/04/25 00:33:20;;;;;;;6.03;3.05;;;6.30;68.20;;;;;;3527991;40;20015;-67
2021/04/25 00:35:46;;;;;;;5.95;2.63;;;6.40;67.60;;;;;;3528547;40;20035;-67
2021/04/25 00:38:12;;;;;;;5.28;2.33;;;6.40;67.60;;;;;;3543686;40;20047;-67
2021/04/25 00:40:38;;;;;;;5.78;2.47;;;6.50;66.80;;;;;;3527556;40;20034;-67
2021/04/25 00:43:03;;;;;;;4.93;1.88;;;6.50;66.60;;;;;;3528164;40;20039;-67
2021/04/25 00:45:29;;;;;;;4.28;2.03;;;6.50;65.60;;;;;;3527786;40;20044;-67
2021/04/25 00:47:55;;;;;;;5.13;1.63;;;6.50;66.40;;;;;;3527894;40;20023;-67
2021/04/25 00:50:24;;;;;;;2.83;1.80;;;6.60;66.80;;;;;;3528335;40;20431;-67
2021/04/25 00:52:55;;;;;;;4.10;2.10;;;6.70;67.10;;;;;;3526908;40;20069;-67
2021/04/25 00:55:23;;;;;;;10.82;4.35;;;6.70;64.90;;;;;;3528214;40;20037;-67
2021/04/25 00:57:51;;;;;;;16.17;6.32;;;6.70;64.50;;;;;;3526792;40;20034;-69
2021/04/25 01:00:17;;;;;;;10.82;4.88;;;6.70;65.00;;;;;;3527248;40;20042;-67
2021/04/25 01:02:43;;;;;;;8.05;3.60;;;6.80;65.80;;;;;;3527828;40;20027;-67
2021/04/25 01:05:11;;;;;;;8.57;4.22;;;6.70;66.50;;;;;;3528490;40;20053;-68
2021/04/25 01:07:37;;;;;;;8.68;3.42;;;6.80;66.50;;;;;;3528429;40;20555;-67
2021/04/25 01:10:05;;;;;;;7.75;2.92;;;6.80;66.50;;;;;;3528238;40;20429;-67
2021/04/25 01:12:31;;;;;;;7.13;3.47;;;6.80;66.90;;;;;;3528293;40;20038;-67
2021/04/25 01:14:56;;;;;;;7.97;3.10;;;6.80;66.70;;;;;;3527906;40;20043;-68
2021/04/25 01:17:22;;;;;;;9.93;3.63;;;6.80;66.70;;;;;;3527498;40;20031;-68
2021/04/25 01:19:48;;;;;;;10.00;4.20;;;6.90;66.60;;;;;;3527844;40;20039;-68
2021/04/25 01:22:14;;;;;;;6.50;3.10;;;6.90;66.10;;;;;;3527794;40;20031;-68
2021/04/25 01:24:39;;;;;;;5.47;2.97;;;6.90;66.40;;;;;;3528040;40;20027;-67
2021/04/25 01:27:06;;;;;;;5.22;3.08;;;6.90;65.70;;;;;;3527761;40;20039;-67
2021/04/25 01:29:32;;;;;;;4.90;2.55;;;7.00;64.90;;;;;;3528180;40;20096;-68
2021/04/25 01:31:57;;;;;;;8.88;3.08;;;7.00;66.20;;;;;;3528309;40;20038;-68
2021/04/25 01:34:23;;;;;;;3.67;1.90;;;7.00;67.50;;;;;;3527790;40;20043;-68
2021/04/25 01:36:51;;;;;;;5.72;2.30;;;7.00;67.40;;;;;;3527356;40;20288;-68
2021/04/25 01:39:17;;;;;;;4.65;2.25;;;7.00;67.00;;;;;;3527854;40;20019;-67
2021/04/25 01:41:43;;;;;;;5.95;2.95;;;7.00;67.60;;;;;;3529011;40;20507;-67
2021/04/25 01:44:09;;;;;;;3.72;2.47;;;7.00;67.50;;;;;;3529028;40;20034;-66
2021/04/25 01:46:34;;;;;;;7.68;2.70;;;7.00;67.50;;;;;;3529764;40;20173;-64
2021/04/25 01:49:00;;;;;;;4.68;2.72;;;7.00;68.00;;;;;;3533930;40;20551;-69
2021/04/25 01:51:26;;;;;;;3.95;2.30;;;6.90;68.20;;;;;;3533605;40;20685;-66
2021/04/25 01:53:52;;;;;;;4.47;2.00;;;7.00;68.00;;;;;;3531194;40;20062;-66
2021/04/25 01:56:18;;;;;;;6.38;2.08;;;7.00;65.80;;;;;;3530310;40;20040;-67
2021/04/25 01:58:43;;;;;;;3.08;1.58;;;7.00;64.80;;;;;;3529774;40;20722;-67
2021/04/25 02:01:09;;;;;;;5.18;1.73;;;7.10;64.50;;;;;;3528772;40;20143;-67
2021/04/25 02:03:35;;;;;;;2.15;1.20;;;7.10;64.50;;;;;;3529399;40;20038;-68
2021/04/25 02:06:01;;;;;;;2.95;1.58;;;7.10;63.10;;;;;;3529491;40;20030;-67
2021/04/25 02:08:26;;;;;;;3.55;1.65;;;7.10;63.20;;;;;;3529359;40;20035;-67
2021/04/25 02:10:52;;;;;;;1.90;1.27;;;7.00;62.90;;;;;;3529326;40;20062;-68
2021/04/25 02:13:19;;;;;;;5.35;1.92;;;6.90;63.10;;;;;;3530027;40;20019;-65
2021/04/25 02:15:45;;;;;;;2.53;1.50;;;6.90;62.90;;;;;;3529994;40;20814;-65
2021/04/25 02:18:11;;;;;;;2.25;1.40;;;6.80;64.20;;;;;;3529513;40;20027;-66
2021/04/25 02:20:37;;;;;;;4.07;1.50;;;6.70;64.70;;;;;;3530194;40;20030;-67
2021/04/25 02:23:03;;;;;;;2.55;1.50;;;6.70;64.90;;;;;;3529637;40;20094;-66
2021/04/25 02:25:29;;;;;;;5.70;1.70;;;6.70;65.60;;;;;;3530259;40;20133;-67
2021/04/25 02:27:56;;;;;;;5.03;2.22;;;6.70;66.00;;;;;;3530289;40;20089;-67
2021/04/25 02:30:24;;;;;;;5.90;2.60;;;6.70;65.20;;;;;;3529207;40;20462;-67
2021/04/25 02:32:51;;;;;;;5.05;2.13;;;6.80;65.40;;;;;;3530700;40;20039;-67
2021/04/25 02:35:18;;;;;;;4.13;2.13;;;6.90;66.00;;;;;;3530421;40;20043;-68
2021/04/25 02:37:45;;;;;;;2.90;2.00;;;6.90;66.00;;;;;;3531043;40;20031;-66
2021/04/25 02:40:13;;;;;;;5.40;2.05;;;7.00;65.40;;;;;;3529183;40;20026;-67
2021/04/25 02:42:39;;;;;;;4.32;1.85;;;7.00;65.90;;;;;;3529461;40;20030;-67
2021/04/25 02:45:06;;;;;;;4.38;2.25;;;7.10;66.80;;;;;;3529883;40;20027;-67
2021/04/25 02:47:33;;;;;;;4.03;2.38;;;7.10;66.50;;;;;;3530091;40;20397;-66
2021/04/25 02:49:59;;;;;;;4.10;1.67;;;7.20;65.10;;;;;;3530355;40;20031;-67
2021/04/25 02:52:27;;;;;;;3.65;2.35;;;7.20;64.90;;;;;;3530016;40;21028;-66
2021/04/25 02:54:53;;;;;;;4.03;2.10;;;7.20;65.30;;;;;;3528303;40;20019;-66
2021/04/25 02:57:20;;;;;;;3.58;2.53;;;7.20;63.90;;;;;;3529438;40;20632;-67
2021/04/25 02:59:45;;;;;;;3.85;1.80;;;7.20;64.80;;;;;;3529598;40;20027;-66
2021/04/25 03:02:11;;;;;;;4.68;2.08;;;7.30;64.70;;;;;;3529623;40;20566;-67
2021/04/25 03:04:37;;;;;;;2.97;1.90;;;7.30;64.20;;;;;;3529596;40;20053;-67
2021/04/25 03:07:03;;;;;;;4.15;2.05;;;7.30;63.30;;;;;;3529877;40;20393;-67
2021/04/25 03:09:29;;;;;;;4.05;2.08;;;7.30;63.40;;;;;;3528914;40;20038;-67
2021/04/25 03:11:54;;;;;;;6.22;2.20;;;7.30;64.50;;;;;;3529370;40;20061;-66
2021/04/25 03:14:20;;;;;;;8.27;2.40;;;7.30;63.40;;;;;;3529603;40;20031;-67
2021/04/25 03:16:46;;;;;;;3.47;2.22;;;7.30;62.20;;;;;;3529309;40;20051;-66
2021/04/25 03:19:11;;;;;;;4.03;2.00;;;7.30;63.50;;;;;;3529293;40;20773;-67
2021/04/25 03:21:37;;;;;;;4.82;1.52;;;7.30;64.70;;;;;;3529335;40;20035;-67
2021/04/25 03:24:03;;;;;;;3.80;1.80;;;7.30;65.20;;;;;;3529557;40;20042;-67
2021/04/25 03:26:29;;;;;;;4.45;2.22;;;7.30;65.00;;;;;;3529321;40;20042;-67
2021/04/25 03:28:55;;;;;;;2.85;1.90;;;7.30;65.30;;;;;;3528110;40;20062;-67
2021/04/25 03:31:21;;;;;;;3.63;2.05;;;7.30;66.10;;;;;;3528667;40;20374;-67
2021/04/25 03:33:46;;;;;;;3.85;2.20;;;7.30;66.70;;;;;;3529551;40;20397;-67
2021/04/25 03:36:12;;;;;;;3.42;1.98;;;7.30;67.40;;;;;;3529156;40;20023;-67
2021/04/25 03:38:38;;;;;;;2.60;1.88;;;7.30;67.30;;;;;;3527936;40;20046;-65
2021/04/25 03:41:03;;;;;;;2.72;2.00;;;7.30;67.40;;;;;;3544346;40;20039;-65
2021/04/25 03:43:29;;;;;;;3.97;1.90;;;7.30;67.90;;;;;;3529135;40;20034;-65
2021/04/25 03:45:55;;;;;;;3.08;1.80;;;7.30;68.00;;;;;;3529988;40;20031;-65
2021/04/25 03:48:21;;;;;;;4.43;2.00;;;7.30;68.40;;;;;;3531813;40;20351;-65
2021/04/25 03:50:47;;;;;;;4.20;2.38;;;7.30;68.50;;;;;;3531932;40;20031;-65
2021/04/25 03:53:13;;;;;;;5.22;2.42;;;7.30;68.50;;;;;;3532835;40;20128;-65
2021/04/25 03:55:39;;;;;;;6.45;2.05;;;7.40;67.70;;;;;;3532124;40;20087;-66
2021/04/25 03:58:05;;;;;;;6.75;2.83;;;7.40;67.50;;;;;;3532326;40;20057;-64
2021/04/25 04:00:31;;;;;;;4.68;2.25;;;7.40;67.50;;;;;;3528379;40;20031;-65
2021/04/25 04:02:57;;;;;;;5.78;2.55;;;7.20;68.20;;;;;;3531340;40;20043;-65
2021/04/25 04:05:23;;;;;;;4.18;2.60;;;7.20;68.80;;;;;;3532159;40;20034;-65
2021/04/25 04:07:48;;;;;;;3.42;2.47;;;7.30;69.00;;;;;;3532087;40;20034;-65
2021/04/25 04:10:14;;;;;;;7.05;2.97;;;7.10;69.20;;;;;;3529678;40;20038;-66
2021/04/25 04:12:40;;;;;;;5.10;2.88;;;7.10;69.40;;;;;;3532442;40;20027;-64
2021/04/25 04:15:07;;;;;;;5.20;3.38;;;7.20;69.50;;;;;;3532279;40;20105;-64
2021/04/25 04:17:33;;;;;;;4.95;2.95;;;7.30;69.60;;;;;;3532725;40;20503;-65
2021/04/25 04:19:58;;;;;;;5.07;2.60;;;7.30;69.40;;;;;;3532118;40;20034;-66
2021/04/25 04:22:24;;;;;;;5.10;2.45;;;7.30;68.80;;;;;;3530982;40;20076;-66
2021/04/25 04:24:50;;;;;;;4.45;2.42;;;7.40;68.50;;;;;;3530802;40;20027;-64
2021/04/25 04:27:16;;;;;;;5.10;2.75;;;7.40;67.40;;;;;;3532615;40;20039;-64
2021/04/25 04:29:41;;;;;;;3.85;2.63;;;7.50;67.40;;;;;;3531761;40;20034;-65
2021/04/25 04:32:07;;;;;;;3.75;2.45;;;7.50;67.30;;;;;;3531345;40;20043;-64
2021/04/25 04:34:33;;;;;;;7.18;2.28;;;7.60;66.70;;;;;;3531885;40;20392;-65
2021/04/25 04:36:58;;;;;;;8.88;2.85;;;7.50;66.90;;;;;;3531998;40;20038;-66
2021/04/25 04:39:25;;;;;;;5.43;2.47;;;7.50;66.90;;;;;;3531467;40;20373;-65
2021/04/25 04:41:51;;;;;;;4.68;2.53;;;7.50;67.50;;;;;;3532009;40;20030;-65
2021/04/25 04:44:17;;;;;;;5.03;2.80;;;7.50;67.90;;;;;;3532474;40;20058;-66
2021/04/25 04:46:43;;;;;;;5.22;2.60;;;7.50;68.00;;;;;;3530220;40;20030;-65
2021/04/25 04:49:09;;;;;;;9.05;3.13;;;7.50;68.10;;;;;;3532255;40;20050;-69
2021/04/25 04:51:35;;;;;;;6.32;2.92;;;7.60;67.80;;;;;;3531782;40;20078;-65
2021/04/25 04:54:00;;;;;;;8.63;3.28;;;7.60;67.50;;;;;;3531537;40;20055;-66
2021/04/25 04:56:26;;;;;;;8.43;2.95;;;7.60;67.60;;;;;;3530797;40;20147;-66
2021/04/25 04:58:52;;;;;;;5.45;2.70;;;7.70;67.00;;;;;;3532074;40;20443;-66
2021/04/25 05:01:18;;;;;;;4.60;2.78;;;7.80;66.80;;;;;;3531108;40;20042;-66
2021/04/25 05:03:44;;;;;;;7.50;3.28;;;7.90;66.80;;;;;;3531232;40;20050;-66
2021/04/25 05:06:09;;;;;;;7.78;3.67;;;7.90;66.10;;;;;;3531052;40;20043;-66
2021/04/25 05:08:35;;;;;;;8.43;2.83;;;7.90;65.90;;;;;;3531229;40;20039;-66
2021/04/25 05:11:01;;;;;;;6.45;2.63;;;8.00;65.50;;;;;;3531779;40;20027;-66
2021/04/25 05:13:26;;;;;;;6.38;3.15;;;8.00;65.20;;;;;;3531618;40;20035;-65
2021/04/25 05:15:52;;;;;;;7.00;2.70;;;8.10;65.40;;;;;;3531417;40;20041;-66
2021/04/25 05:18:19;;;;;;;8.73;3.08;;;8.20;64.90;;;;;;3531913;40;20085;-66
2021/04/25 05:20:45;;;;;;;4.40;2.58;;;8.30;64.60;;;;;;3532794;40;20321;-66
2021/04/25 05:23:11;;;;;;;5.47;2.80;;;8.30;64.30;;;;;;3532821;40;20034;-66
2021/04/25 05:25:36;;;;;;;5.22;2.95;;;8.30;64.10;;;;;;3533201;40;20063;-64
2021/04/25 05:28:02;;;;;;;4.22;2.40;;;8.40;64.40;;;;;;3532831;40;20325;-66
2021/04/25 05:30:28;;;;;;;5.10;2.75;;;8.40;63.90;;;;;;3532467;40;20027;-66
2021/04/25 05:32:54;;;;;;;4.70;2.72;;;8.60;63.40;;;;;;3532989;40;20015;-66
2021/04/25 05:35:20;;;;;;;4.95;2.50;;;8.70;63.30;;;;;;3532948;40;20038;-66
2021/04/25 05:37:46;;;;;;;4.20;2.30;;;8.70;62.70;;;;;;3532147;40;20061;-66
2021/04/25 05:40:13;;;;;;;4.22;2.47;;;8.80;62.60;;;;;;3532248;40;20027;-66
2021/04/25 05:42:39;;;;;;;4.75;2.83;;;9.00;62.30;;;;;;3532007;40;20046;-65
2021/04/25 05:45:06;;;;;;;5.63;2.80;;;9.00;62.20;;;;;;3531909;40;20031;-66
2021/04/25 05:47:32;;;;;;;5.60;2.40;;;9.10;61.60;;;;;;3530297;40;20129;-66
2021/04/25 05:49:59;;;;;;;4.18;2.50;;;9.20;62.40;;;;;;3532580;40;20071;-65
2021/04/25 05:52:25;;;;;;;6.80;2.85;;;9.30;61.30;;;;;;3532433;40;20045;-67
2021/04/25 05:54:50;;;;;;;5.05;2.67;;;9.40;61.10;;;;;;3532715;40;20027;-66
2021/04/25 05:57:16;;;;;;;8.48;2.70;;;9.50;60.80;;;;;;3532786;40;20102;-66
2021/04/25 05:59:42;;;;;;;6.93;2.85;;;9.60;59.60;;;;;;3533213;40;20034;-65
2021/04/25 06:02:07;;;;;;;7.05;2.85;;;9.70;59.40;;;;;;3533586;40;20524;-66
2021/04/25 06:04:33;;;;;;;4.18;2.78;;;9.80;59.60;;;;;;3533210;40;20404;-68
2021/04/25 06:07:00;;;;;;;6.03;2.65;;;9.80;60.30;;;;;;3535062;40;20058;-66
2021/04/25 06:09:26;;;;;;;5.90;2.50;;;9.80;60.80;;;;;;3535563;40;20088;-66
2021/04/25 06:11:52;;;;;;;5.72;2.72;;;9.80;60.60;;;;;;3533956;40;20043;-64
2021/04/25 06:14:19;;;;;;;4.15;2.50;;;9.90;58.80;;;;;;3532396;40;20031;-64
2021/04/25 06:16:45;;;;;;;4.20;2.33;;;9.80;58.90;;;;;;3531774;40;20132;-64
2021/04/25 06:19:11;;;;;;;3.33;1.88;;;9.70;57.80;;;;;;3532323;40;20039;-66
2021/04/25 06:21:37;;;;;;;8.93;4.80;;;9.70;58.20;;;;;;3532753;40;20042;-66
2021/04/25 06:24:04;;;;;;;6.22;2.60;;;9.80;57.70;;;;;;3531866;40;20113;-65
2021/04/25 06:26:29;;;;;;;6.18;2.45;;;9.90;57.80;;;;;;3532327;40;20037;-65
2021/04/25 06:28:55;;;;;;;2.83;2.03;;;9.90;56.90;;;;;;3532046;40;20075;-66
2021/04/25 06:31:21;;;;;;;4.47;1.83;;;9.80;56.50;;;;;;3532312;40;20041;-64
2021/04/25 06:33:47;;;;;;;3.65;2.25;;;9.80;56.20;;;;;;3532987;40;20035;-65
2021/04/25 06:36:13;;;;;;;4.40;2.25;;;9.80;56.30;;;;;;3533010;40;20031;-66
2021/04/25 06:38:39;;;;;;;4.00;2.22;;;10.00;56.70;;;;;;3533248;40;20031;-66
2021/04/25 06:41:05;;;;;;;5.88;2.10;;;10.10;55.90;;;;;;3532588;40;20633;-64
2021/04/25 06:43:33;;;;;;;4.60;1.88;;;10.10;55.00;;;;;;3532262;40;20049;-65
2021/04/25 06:45:59;;;;;;;7.40;1.95;;;10.20;53.50;;;;;;3533562;40;20089;-71
2021/04/25 06:48:25;;;;;;;6.53;1.90;;;10.30;53.40;;;;;;3533346;40;20039;-66
2021/04/25 06:50:50;;;;;;;5.43;2.50;;;10.50;52.50;;;;;;3532973;40;20050;-66
2021/04/25 06:53:16;;;;;;;2.53;1.85;;;10.70;52.80;;;;;;3532723;40;20035;-65
2021/04/25 06:55:43;;;;;;;3.83;1.65;;;11.10;52.60;;;;;;3533641;40;20047;-66
2021/04/25 06:58:09;;;;;;;5.57;2.55;;;11.30;52.40;;;;;;3533046;40;20129;-67
2021/04/25 07:00:35;;;;;;;4.38;2.50;;;11.40;51.70;;;;;;3533302;40;20079;-66
2021/04/25 07:03:00;;;;;;;4.97;2.25;;;11.40;51.70;;;;;;3532818;40;20023;-67
2021/04/25 07:05:27;;;;;;;6.00;2.08;;;11.30;52.00;;;;;;3532902;40;20039;-66
2021/04/25 07:07:53;;;;;;;4.28;2.13;;;11.30;51.60;;;;;;3532693;40;20671;-66
2021/04/25 07:10:18;;;;;;;5.30;2.13;;;11.30;51.30;;;;;;3533511;40;20031;-66
2021/04/25 07:12:45;;;;;;;3.45;2.17;;;11.20;52.10;;;;;;3532268;40;20062;-66
2021/04/25 07:15:11;;;;;;;4.53;2.30;;;11.20;52.30;;;;;;3533102;40;20031;-66
2021/04/25 07:17:37;;;;;;;8.18;4.55;;;11.30;52.70;;;;;;3532376;40;20023;-65
2021/04/25 07:20:05;;;;;;;5.18;2.40;;;11.60;50.80;;;;;;3532948;40;20706;-66
2021/04/25 07:22:31;;;;;;;4.35;2.50;;;11.80;50.30;;;;;;3529934;40;20046;-66
2021/04/25 07:24:57;;;;;;;4.95;2.28;;;11.90;50.40;;;;;;3532825;40;20301;-68
2021/04/25 07:27:22;;;;;;;3.45;2.13;;;11.90;50.10;;;;;;3532766;40;20069;-65
2021/04/25 07:29:48;;;;;;;4.82;2.63;;;12.00;51.00;;;;;;3548187;40;20777;-65
2021/04/25 07:32:15;;;;;;;7.40;2.42;;;12.10;50.20;;;;;;3532583;40;20034;-67
2021/04/25 07:34:40;;;;;;;8.43;3.80;;;12.20;50.10;;;;;;3532770;40;20711;-64
2021/04/25 07:37:08;;;;;;;8.63;5.55;;;12.40;48.10;;;;;;3532872;40;20087;-65
2021/04/25 07:39:36;;;;;;;8.93;4.32;;;12.30;49.50;;;;;;3532206;40;20023;-66
2021/04/25 07:42:03;;;;;;;6.65;3.55;;;12.20;50.50;;;;;;3531703;40;20031;-64
2021/04/25 07:44:29;;;;;;;6.82;2.40;;;12.30;50.80;;;;;;3532151;40;20153;-65
2021/04/25 07:46:55;;;;;;;5.97;2.35;;;12.40;47.90;;;;;;3532500;40;20086;-63
2021/04/25 07:49:22;;;;;;;4.95;2.78;;;12.40;47.70;;;;;;3530242;40;20038;-64
2021/04/25 07:51:48;;;;;;;6.63;3.13;;;12.50;48.50;;;;;;3531379;40;20057;-64
2021/04/25 07:54:13;;;;;;;6.20;2.30;;;13.10;48.70;;;;;;3528211;40;20132;-64
2021/04/25 07:56:39;;;;;;;3.72;2.30;;;13.60;45.80;;;;;;3531678;40;20313;-63
2021/04/25 07:59:05;;;;;;;10.13;2.63;;;13.80;45.10;;;;;;3531400;40;20069;-64
2021/04/25 08:01:31;;;;;;;3.80;2.28;;;13.70;44.60;;;;;;3531452;40;20076;-65
2021/04/25 08:03:57;;;;;;;5.28;2.38;;;13.50;45.20;;;;;;3533533;40;20285;-64
2021/04/25 08:06:25;;;;;;;6.40;3.30;;;13.40;47.10;;;;;;3532111;40;20348;-65
2021/04/25 08:08:51;;;;;;;4.13;2.28;;;13.30;47.40;;;;;;3531862;40;20034;-67
2021/04/25 08:11:17;;;;;;;3.50;2.05;;;13.30;46.30;;;;;;3531556;40;20636;-64
2021/04/25 08:13:43;;;;;;;5.53;2.38;;;13.20;47.00;;;;;;3532172;40;20027;-66
2021/04/25 08:16:09;;;;;;;5.60;2.60;;;13.20;47.10;;;;;;3532605;40;20047;-65
2021/04/25 08:18:34;;;;;;;3.40;2.35;;;13.20;46.30;;;;;;3532675;40;20125;-65
2021/04/25 08:21:00;;;;;;;4.63;2.28;;;13.20;45.80;;;;;;3532164;40;20419;-65
2021/04/25 08:23:26;;;;;;;4.07;2.25;;;13.20;45.30;;;;;;3531840;40;20026;-65
2021/04/25 08:25:51;;;;;;;6.35;2.45;;;13.20;46.30;;;;;;3532159;40;20027;-65
2021/04/25 08:28:18;;;;;;;8.02;2.65;;;13.10;45.90;;;;;;3531151;40;20050;-65
2021/04/25 08:30:44;;;;;;;4.25;2.13;;;13.10;47.70;;;;;;3531439;40;20034;-66
2021/04/25 08:33:10;;;;;;;3.65;2.25;;;13.20;47.80;;;;;;3531321;40;20019;-65
2021/04/25 08:35:36;;;;;;;5.65;2.58;;;13.30;45.50;;;;;;3531478;40;20031;-66
2021/04/25 08:38:01;;;;;;;3.47;2.25;;;13.40;45.90;;;;;;3532017;40;20520;-65
2021/04/25 08:40:27;;;;;;;4.88;2.20;;;13.70;44.70;;;;;;3531567;40;20047;-66
2021/04/25 08:42:53;;;;;;;6.78;1.90;;;13.90;44.40;;;;;;3531474;40;20402;-67
2021/04/25 08:45:19;;;;;;;5.13;2.00;;;13.90;43.10;;;;;;3531172;40;20046;-65
2021/04/25 08:47:57;;;;;;;2.42;1.75;;;13.60;42.80;;;;;;3532073;40;20034;-65
2021/04/25 08:50:25;;;;;;;6.90;3.08;;;13.90;44.40;;;;;;3530122;40;20130;-65
2021/04/25 08:52:51;;;;;;;3.88;2.15;;;14.70;43.80;;;;;;3531827;40;20035;-65
2021/04/25 08:55:17;;;;;;;4.80;2.30;;;15.30;41.80;;;;;;3531304;40;20033;-65
2021/04/25 08:57:43;;;;;;;5.18;1.90;;;15.60;41.00;;;;;;3530782;40;20038;-65
2021/04/25 09:00:10;;;;;;;4.38;1.95;;;15.50;41.30;;;;;;3531260;40;20137;-65
2021/04/25 09:02:35;;;;;;;6.15;2.50;;;15.20;40.90;;;;;;3531363;40;20035;-66
2021/04/25 09:05:02;;;;;;;4.32;2.70;;;14.80;41.80;;;;;;3531963;40;20433;-66
2021/04/25 09:07:28;;;;;;;4.47;3.00;;;14.80;41.50;;;;;;3531543;40;20038;-66
2021/04/25 09:10:00;;;;;;;4.72;2.72;;;14.90;41.60;;;;;;3531446;40;20023;-65
2021/04/25 09:12:36;;;;;;;4.10;2.50;;;14.90;42.50;;;;;;3531530;40;20039;-65
2021/04/25 09:15:11;;;;;;;4.72;2.80;;;14.80;41.00;;;;;;3531669;40;20041;-65
2021/04/25 09:17:55;;;;;;;5.40;2.57;;;14.70;42.30;;;;;;3537319;40;20440;-66
2021/04/25 09:20:30;;;;;;;5.57;2.85;;;14.70;41.90;;;;;;3528509;40;20375;-66
2021/04/25 09:22:56;;;;;;;6.00;2.83;;;15.10;42.60;;;;;;3531377;40;20031;-65
2021/04/25 09:25:22;;;;;;;4.22;2.60;;;15.40;41.50;;;;;;3530230;40;20582;-65
2021/04/25 09:27:51;;;;;;;4.60;2.40;;;15.50;41.60;;;;;;3530223;40;20114;-66
2021/04/25 09:30:25;;;;;;;3.38;2.42;;;15.70;39.90;;;;;;3530732;40;20027;-65
2021/04/25 09:33:05;;;;;;;3.40;1.80;;;16.10;40.10;;;;;;3530714;40;20071;-66
2021/04/25 09:35:32;;;;;;;4.80;2.05;;;16.60;40.60;;;;;;3530127;40;20119;-66
2021/04/25 09:38:08;;;;;;;4.43;1.75;;;16.90;37.40;;;;;;3530483;40;20023;-65
2021/04/25 09:40:41;;;;;;;4.10;1.98;;;16.80;36.70;;;;;;3530544;40;20035;-64
2021/04/25 09:43:09;;;;;;;6.88;1.90;;;16.30;35.80;;;;;;3529537;40;20027;-65
2021/04/25 09:45:40;;;;;;;2.50;1.98;;;15.90;36.80;;;;;;3530994;40;20037;-65
2021/04/25 09:48:25;;;;;;;2.67;1.67;;;15.30;39.70;;;;;;3528947;40;20035;-65
2021/04/25 09:51:08;;;;;;;5.38;2.00;;;14.90;37.80;;;;;;3529173;40;20540;-64
2021/04/25 09:53:35;;;;;;;4.38;1.67;;;14.40;38.60;;;;;;3527673;40;20035;-65
2021/04/25 09:56:01;;;;;;;3.90;2.00;;;14.10;41.00;;;;;;3526112;40;20047;-65
2021/04/25 09:58:27;;;;;;;4.47;1.88;;;13.70;42.60;;;;;;3527386;40;20034;-68
2021/04/25 10:00:54;;;;;;;3.08;1.60;;;13.60;43.20;;;;;;3526271;40;20095;-65
2021/04/25 10:03:22;;;;;;;3.13;1.73;;;13.30;43.00;;;;;;3526285;40;20432;-66
2021/04/25 10:06:05;;;;;;;6.05;2.47;;;13.10;43.80;;;;;;3527276;40;20089;-66
2021/04/25 10:08:36;;;;;;;4.75;2.35;;;12.80;44.80;;;;;;3528963;40;20151;-65
2021/04/25 10:11:05;;;;;;;2.95;1.52;;;12.60;47.40;;;;;;3528402;40;20032;-65
2021/04/25 10:13:32;;;;;;;4.13;3.20;;;12.50;48.20;;;;;;3529032;40;20121;-64
2021/04/25 10:15:58;;;;;;;3.58;1.90;;;12.30;49.00;;;;;;3529406;40;20405;-65
2021/04/25 10:18:24;;;;;;;4.03;2.45;;;12.10;50.40;;;;;;3528619;40;20027;-67
2021/04/25 10:20:52;;;;;;;4.25;2.28;;;12.00;54.70;;;;;;3528765;40;20038;-67
2021/04/25 10:23:18;;;;;;;4.68;2.80;;;11.90;53.30;;;;;;3528910;40;20031;-66
2021/04/25 10:25:45;;;;;;;6.28;3.35;;;11.90;52.80;;;;;;3528745;40;20701;-64
2021/04/25 10:28:18;;;;;;;26.25;10.43;;;11.90;52.80;;;;;;3529471;40;20045;-66
2021/04/25 10:30:46;;;;;;;8.18;2.90;;;12.00;53.80;;;;;;3529111;40;20078;-65
2021/04/25 10:33:12;;;;;;;9.93;4.72;;;12.10;52.80;;;;;;3529945;40;20027;-66
2021/04/25 10:35:38;;;;;;;5.18;3.35;;;12.30;51.00;;;;;;3534317;40;20045;-66
2021/04/25 10:38:05;;;;;;;4.55;2.13;;;12.40;50.90;;;;;;3530962;40;20303;-67
2021/04/25 10:40:34;;;;;;;7.40;2.20;;;12.50;48.30;;;;;;3529594;40;20059;-66
2021/04/25 10:43:11;;;;;;;28.23;10.60;;;12.50;48.70;;;;;;3530066;40;20302;-69
2021/04/25 10:45:59;;;;;;;8.25;3.70;;;12.50;47.90;;;;;;3529511;40;20062;-64
2021/04/25 10:48:28;;;;;;;4.00;1.90;;;12.50;47.60;;;;;;3529188;40;20428;-65
2021/04/25 10:51:12;;;;;;;5.30;1.80;;;12.50;48.50;;;;;;3528667;40;20100;-65
2021/04/25 10:53:41;;;;;;;3.70;1.70;;;12.60;47.90;;;;;;3526299;40;20181;-67
2021/04/25 10:56:20;;;;;;;7.78;2.33;;;12.70;46.70;;;;;;3527980;40;20098;-66
2021/04/25 10:58:48;;;;;;;4.43;1.77;;;12.80;44.70;;;;;;3542534;40;20034;-66
2021/04/25 11:01:40;;;;;;;5.47;1.48;;;12.90;42.60;;;;;;3528713;40;20035;-67
2021/04/25 11:04:08;;;;;;;2.00;1.60;;;13.20;42.20;;;;;;3529327;40;20034;-66
2021/04/25 11:06:33;;;;;;;1.77;1.15;;;13.40;38.70;;;;;;3529918;40;20057;-66
2021/04/25 11:08:59;;;;;;;2.00;1.23;;;13.40;40.30;;;;;;3529681;40;20019;-67
2021/04/25 11:11:32;;;;;;;2.33;1.40;;;13.50;38.80;;;;;;3529244;40;20039;-66
2021/04/25 11:13:59;;;;;;;7.75;2.88;;;13.50;37.10;;;;;;3529971;40;20039;-66
2021/04/25 11:16:27;;;;;;;5.65;2.88;;;13.40;39.20;;;;;;3527841;40;20039;-66
2021/04/25 11:19:07;;;;;;;3.38;1.20;;;13.50;41.10;;;;;;3529409;40;20023;-66
2021/04/25 11:21:34;;;;;;;2.10;1.20;;;13.70;39.70;;;;;;3528713;40;20030;-67
2021/04/25 11:24:06;;;;;;;2.85;1.40;;;13.90;39.40;;;;;;3529494;40;20034;-66
2021/04/25 11:26:35;;;;;;;3.33;1.05;;;14.10;37.80;;;;;;3527898;40;20487;-67
2021/04/25 11:29:02;;;;;;;6.53;4.30;;;14.20;38.50;;;;;;3529733;40;20059;-66
2021/04/25 11:31:58;;;;;;;3.63;1.50;;;14.30;39.50;;;;;;3528728;40;20558;-67
2021/04/25 11:34:27;;;;;;;2.85;1.80;;;14.70;37.80;;;;;;3528817;40;20030;-66
2021/04/25 11:37:14;;;;;;;2.70;1.25;;;14.70;37.00;;;;;;3528997;40;20050;-66
2021/04/25 11:39:44;;;;;;;2.33;1.60;;;14.60;36.60;;;;;;3528495;40;20325;-66
2021/04/25 11:42:12;;;;;;;3.00;1.75;;;14.30;38.50;;;;;;3528539;40;20035;-66
2021/04/25 11:44:41;;;;;;;4.80;1.50;;;14.20;39.10;;;;;;3527986;40;20045;-67
2021/04/25 11:47:09;;;;;;;3.33;1.65;;;14.30;38.40;;;;;;3529189;40;20038;-65
2021/04/25 11:49:41;;;;;;;1.85;1.30;;;14.40;39.30;;;;;;3528848;40;20045;-67
2021/04/25 11:52:11;;;;;;;6.47;3.28;;;14.30;38.50;;;;;;3529296;40;20039;-66
2021/04/25 11:54:38;;;;;;;1.15;0.90;;;14.20;39.20;;;;;;3528921;40;20031;-67
2021/04/25 11:57:16;;;;;;;3.58;1.95;;;14.20;38.90;;;;;;3529212;40;20035;-66
2021/04/25 12:00:10;;;;;;;1.52;1.27;;;14.30;40.20;;;;;;3522623;40;20034;-65
2021/04/25 12:02:49;;;;;;;3.65;1.10;;;14.20;37.50;;;;;;3527619;40;20042;-66
2021/04/25 12:05:21;;;;;;;2.70;2.15;;;14.00;38.50;;;;;;3528453;40;20104;-67
2021/04/25 12:07:54;;;;;;;3.28;0.98;;;14.10;40.60;;;;;;3528510;40;20039;-66
2021/04/25 12:10:23;;;;;;;3.67;1.60;;;14.30;39.30;;;;;;3527972;40;20067;-66
2021/04/25 12:13:31;;;;;;;5.20;1.13;;;14.60;37.90;;;;;;3528202;40;20502;-66
2021/04/25 12:16:02;;;;;;;3.67;1.98;;;14.70;37.30;;;;;;3528522;40;20023;-66
2021/04/25 12:18:30;;;;;;;2.20;1.13;;;14.60;37.80;;;;;;3528703;40;20110;-67
2021/04/25 12:21:01;;;;;;;2.15;1.27;;;14.60;38.30;;;;;;3528676;40;20106;-69
2021/04/25 12:23:29;;;;;;;2.38;0.93;;;14.50;35.40;;;;;;3528838;40;20027;-67
2021/04/25 12:25:55;;;;;;;3.60;2.80;;;14.30;35.30;;;;;;3528774;40;20068;-66
2021/04/25 12:28:36;;;;;;;2.53;1.00;;;14.20;36.20;;;;;;3543432;40;20046;-67
2021/04/25 12:31:02;;;;;;;2.15;1.80;;;14.00;36.00;;;;;;3543140;40;20427;-67
2021/04/25 12:33:42;;;;;;;2.90;2.40;;;14.00;35.40;;;;;;3528499;40;20043;-67
2021/04/25 12:36:13;;;;;;;1.83;1.58;;;14.00;35.30;;;;;;3527891;40;20053;-66
2021/04/25 12:38:40;;;;;;;1.75;1.17;;;14.00;33.40;;;;;;3528405;40;20697;-67
2021/04/25 12:41:10;;;;;;;6.57;0.90;;;13.90;33.70;;;;;;3528934;40;20043;-67
2021/04/25 12:43:58;;;;;;;2.88;0.80;;;13.90;34.70;;;;;;3528491;40;20027;-65
2021/04/25 12:46:27;;;;;;;4.80;1.10;;;13.90;35.10;;;;;;3527725;40;20050;-66
2021/04/25 12:48:55;;;;;;;0.65;0.60;;;13.90;35.60;;;;;;3528274;40;20027;-66
2021/04/25 12:51:28;;;;;;;1.17;0.60;;;13.90;34.80;;;;;;3528302;40;20054;-66
2021/04/25 12:53:57;;;;;;;1.52;0.70;;;13.90;33.30;;;;;;3526219;40;20530;-68